Time;durP1;ratioP1;P1;durP2;ratioP2;P2;SDS_P1;SDS_P2;PMS_P1;PMS_P2;Temp;Humidity;BMP_temperature;BMP_pressure;BME280_temperature;BME280_humidity;BME280_pressure;Samples;Min_cycle;Max_cycle;Signal;HPM_P1;HPM_P2
2023/09/22 00:20:41;;;;;;;6.73;2.73;;;;;;;;;;10381558;22;20390;-95
2023/09/22 00:25:10;;;;;;;4.80;2.90;;;;;;;;;;10339823;22;20021;-95
2023/09/22 00:29:43;;;;;;;7.90;3.33;;;;;;;;;;10177241;22;20022;-94
2023/09/22 01:12:10;;;;;;;4.68;3.05;;;;;;;;;;10407572;22;20023;-96
2023/09/22 01:16:14;;;;;;;6.05;3.20;;;;;;;;;;10362291;22;20050;-95
2023/09/22 01:35:54;;;;;;;7.00;3.67;;;;;;;;;;10384416;22;20023;31
2023/09/22 02:20:52;;;;;;;439.95;368.58;;;;;;;;;;10389322;22;20023;-94
2023/09/22 04:13:30;;;;;;;;;;;;;;;;;;;;;
2023/09/22 04:47:42;;;;;;;9.48;5.18;;;;;;;;;;10433631;22;20023;-94
2023/09/22 04:52:52;;;;;;;9.02;7.13;;;;;;;;;;10434678;22;20105;-93
2023/09/22 05:02:23;;;;;;;9.90;7.45;;;;;;;;;;10453661;22;20023;-91
2023/09/22 05:06:38;;;;;;;10.60;6.00;;;;;;;;;;10449643;22;20022;-91
2023/09/22 05:10:48;;;;;;;12.35;6.85;;;;;;;;;;10473691;22;20590;-93
2023/09/22 05:14:52;;;;;;;15.05;11.32;;;;;;;;;;10469759;22;20023;-91
2023/09/22 05:19:03;;;;;;;14.07;9.02;;;;;;;;;;10451103;22;20026;-91
2023/09/22 05:23:23;;;;;;;15.38;9.15;;;;;;;;;;10485057;22;20023;-91
2023/09/22 05:27:28;;;;;;;12.40;5.70;;;;;;;;;;10450751;22;20019;-90
2023/09/22 05:36:34;;;;;;;10.38;4.05;;;;;;;;;;10452557;22;20061;-95
2023/09/22 05:40:40;;;;;;;12.35;8.80;;;;;;;;;;10250593;23;20021;-94
2023/09/22 05:44:50;;;;;;;10.38;6.40;;;;;;;;;;10301583;23;20029;-94
2023/09/22 05:48:57;;;;;;;8.75;5.03;;;;;;;;;;10273775;23;20035;-95
2023/09/22 05:53:05;;;;;;;14.68;7.03;;;;;;;;;;10372591;22;20378;-95
2023/09/22 05:57:11;;;;;;;11.13;5.53;;;;;;;;;;10448723;22;20019;-94
2023/09/22 06:01:23;;;;;;;12.40;7.57;;;;;;;;;;10454416;22;20030;-94
2023/09/22 06:05:34;;;;;;;14.57;10.77;;;;;;;;;;10467896;22;20019;-95
2023/09/22 06:09:47;;;;;;;14.45;10.32;;;;;;;;;;10465036;22;20070;-94
2023/09/22 06:13:57;;;;;;;15.30;8.32;;;;;;;;;;10427448;22;20042;-95
2023/09/22 06:18:00;;;;;;;7.38;4.43;;;;;;;;;;10418589;22;20034;-92
2023/09/22 06:22:04;;;;;;;7.97;4.63;;;;;;;;;;10442243;22;20355;-95
2023/09/22 06:26:10;;;;;;;15.00;5.90;;;;;;;;;;10424929;22;20339;-94
2023/09/22 06:30:34;;;;;;;7.30;4.32;;;;;;;;;;10453632;22;20121;-94
2023/09/22 06:34:40;;;;;;;9.25;6.22;;;;;;;;;;10466790;22;20022;-94
2023/09/22 06:38:43;;;;;;;7.60;3.60;;;;;;;;;;10392912;22;20023;-93
2023/09/22 06:43:15;;;;;;;11.70;4.30;;;;;;;;;;10432053;22;20019;-92
2023/09/22 06:53:22;;;;;;;11.82;5.40;;;;;;;;;;10351121;22;20098;-92
2023/09/22 07:02:08;;;;;;;8.57;4.13;;;;;;;;;;10443987;22;20102;-92
2023/09/22 07:06:15;;;;;;;8.85;3.85;;;;;;;;;;10462813;22;20011;-93
2023/09/22 07:15:16;;;;;;;9.27;5.25;;;;;;;;;;10182962;23;20029;-93
2023/09/22 07:19:23;;;;;;;12.60;4.57;;;;;;;;;;10215451;23;20144;-95
2023/09/22 07:24:12;;;;;;;7.97;4.55;;;;;;;;;;10033428;23;20030;-96
2023/09/22 07:28:43;;;;;;;8.82;3.83;;;;;;;;;;10019843;23;20019;-96
2023/09/22 07:33:04;;;;;;;9.98;4.63;;;;;;;;;;10039269;23;20026;-96
2023/09/22 07:37:31;;;;;;;7.88;4.40;;;;;;;;;;9999297;23;20033;-96
2023/09/22 07:41:57;;;;;;;11.98;4.60;;;;;;;;;;10019458;23;20047;-94
2023/09/22 07:51:12;;;;;;;10.48;5.15;;;;;;;;;;9802126;24;20037;-93
2023/09/22 07:55:29;;;;;;;9.52;4.13;;;;;;;;;;9805645;24;20021;-93
2023/09/22 07:59:34;;;;;;;9.60;5.38;;;;;;;;;;9814419;24;20029;-91
2023/09/22 08:03:38;;;;;;;10.20;4.82;;;;;;;;;;9824257;24;20025;-91
2023/09/22 08:07:46;;;;;;;10.80;4.93;;;;;;;;;;9805519;24;20061;-90
2023/09/22 08:11:50;;;;;;;8.13;4.15;;;;;;;;;;9802742;23;20035;-93
2023/09/22 08:15:55;;;;;;;13.52;4.90;;;;;;;;;;9894740;24;20024;-92
2023/09/22 08:20:11;;;;;;;8.88;4.47;;;;;;;;;;9911917;24;20059;-92
2023/09/22 08:24:27;;;;;;;9.48;4.47;;;;;;;;;;9930806;23;20019;-93
2023/09/22 08:28:39;;;;;;;12.63;6.00;;;;;;;;;;9991089;23;20046;-93
2023/09/22 08:33:05;;;;;;;10.90;4.70;;;;;;;;;;9991741;23;20025;-93
2023/09/22 08:47:26;;;;;;;10.00;4.90;;;;;;;;;;10010599;23;20030;-90
2023/09/22 08:52:00;;;;;;;10.95;4.80;;;;;;;;;;9992760;23;20467;-91
2023/09/22 09:05:52;;;;;;;9.25;4.82;;;;;;;;;;9997265;23;20023;-91
2023/09/22 09:10:29;;;;;;;7.85;4.38;;;;;;;;;;9997506;23;20023;-92
2023/09/22 09:15:03;;;;;;;10.02;4.68;;;;;;;;;;10216316;23;20021;-92
2023/09/22 09:19:48;;;;;;;;;;;;;;;;;;10241416;23;20021;-92
2023/09/22 09:24:44;;;;;;;7.68;4.28;;;;;;;;;;10244825;23;19912;-94
2023/09/22 09:29:00;;;;;;;13.38;5.07;;;;;;;;;;10241344;23;20021;-94
2023/09/22 09:33:31;;;;;;;9.30;4.47;;;;;;;;;;10259675;23;20024;-93
2023/09/22 09:54:20;;;;;;;9.20;4.47;;;;;;;;;;10444893;22;20027;-95
2023/09/22 10:30:30;;;;;;;8.65;4.38;;;;;;;;;;10317542;22;20035;-93
2023/09/22 10:34:54;;;;;;;10.85;4.22;;;;;;;;;;10275271;23;20092;-93
2023/09/22 10:44:17;;;;;;;11.15;4.32;;;;;;;;;;10469640;22;20019;-95
2023/09/22 10:48:24;;;;;;;9.13;4.63;;;;;;;;;;10462661;22;20022;-93
2023/09/22 10:56:41;;;;;;;18.55;7.07;;;;;;;;;;10443377;22;20042;-95
2023/09/22 11:00:56;;;;;;;9.48;4.28;;;;;;;;;;10414612;22;20015;-93
2023/09/22 11:05:00;;;;;;;23.70;7.80;;;;;;;;;;10286891;22;20106;-93
2023/09/22 11:14:26;;;;;;;7.90;4.20;;;;;;;;;;10443491;22;20386;-92
2023/09/22 11:18:33;;;;;;;9.35;3.97;;;;;;;;;;10416078;22;20019;-94
2023/09/22 11:22:44;;;;;;;8.98;4.75;;;;;;;;;;10463906;22;20018;-94
2023/09/22 11:26:48;;;;;;;9.83;3.70;;;;;;;;;;10202253;23;20013;-93
2023/09/22 11:30:55;;;;;;;7.32;3.65;;;;;;;;;;10413781;22;20019;-93
2023/09/22 11:35:06;;;;;;;9.77;4.03;;;;;;;;;;10459974;22;20015;-95
2023/09/22 11:39:27;;;;;;;6.13;4.00;;;;;;;;;;10287831;22;20025;-94
2023/09/22 11:43:40;;;;;;;11.38;3.70;;;;;;;;;;10203065;23;20018;-94
2023/09/22 11:57:39;;;;;;;14.35;5.47;;;;;;;;;;10359956;22;20020;-92
2023/09/22 12:01:46;;;;;;;7.63;4.20;;;;;;;;;;10363761;22;20023;-93
2023/09/22 12:05:51;;;;;;;10.43;4.35;;;;;;;;;;10391456;22;20015;-93
2023/09/22 12:09:56;;;;;;;7.47;4.22;;;;;;;;;;10364911;22;20069;-94
2023/09/22 12:14:11;;;;;;;6.90;3.90;;;;;;;;;;10363639;22;20015;-94
2023/09/22 12:23:33;;;;;;;10.60;4.43;;;;;;;;;;10410368;22;20085;-94
2023/09/22 12:28:07;;;;;;;8.35;3.50;;;;;;;;;;10443468;22;20015;-94
2023/09/22 12:32:16;;;;;;;9.27;4.63;;;;;;;;;;10460141;22;20019;-93
2023/09/22 12:40:57;;;;;;;6.55;3.85;;;;;;;;;;10445915;22;20023;-95
2023/09/22 12:45:13;;;;;;;7.28;3.80;;;;;;;;;;10419026;22;20022;-92
2023/09/22 12:49:18;;;;;;;8.55;3.67;;;;;;;;;;10445635;22;20015;-93
2023/09/22 12:53:29;;;;;;;9.80;3.53;;;;;;;;;;10445339;22;20019;-92
2023/09/22 12:57:44;;;;;;;6.82;4.10;;;;;;;;;;10417605;22;20019;-92
2023/09/22 13:01:52;;;;;;;5.53;3.17;;;;;;;;;;10417289;22;20016;-92
2023/09/22 13:05:56;;;;;;;6.05;3.00;;;;;;;;;;10417525;22;20015;-92
2023/09/22 13:10:06;;;;;;;8.07;3.50;;;;;;;;;;10445060;22;20015;-92
2023/09/22 13:14:20;;;;;;;8.02;3.42;;;;;;;;;;10418039;22;20026;-92
2023/09/22 13:18:25;;;;;;;4.68;3.22;;;;;;;;;;10416979;22;20016;-92
2023/09/22 13:22:30;;;;;;;7.10;2.97;;;;;;;;;;10444960;22;20015;-92
2023/09/22 13:26:34;;;;;;;7.80;3.00;;;;;;;;;;10417189;22;20018;-93
2023/09/22 13:31:05;;;;;;;7.63;3.13;;;;;;;;;;10445890;22;20015;-92
2023/09/22 13:35:11;;;;;;;7.53;3.10;;;;;;;;;;10416937;22;20015;-91
2023/09/22 13:39:16;;;;;;;5.35;2.95;;;;;;;;;;10444573;22;20019;-92
2023/09/22 13:43:22;;;;;;;6.13;2.90;;;;;;;;;;10417385;22;20061;-91
2023/09/22 13:47:29;;;;;;;6.18;3.20;;;;;;;;;;10461823;22;20015;-92
2023/09/22 13:56:41;;;;;;;7.72;3.30;;;;;;;;;;10448837;22;20026;-92
2023/09/22 14:00:52;;;;;;;7.65;3.10;;;;;;;;;;10422886;22;20037;-92
2023/09/22 14:05:23;;;;;;;9.90;3.25;;;;;;;;;;10471562;22;20358;-90
2023/09/22 14:09:41;;;;;;;10.15;3.13;;;;;;;;;;10421890;22;20015;-92
2023/09/22 14:13:51;;;;;;;8.80;3.38;;;;;;;;;;10467154;22;20022;-92
2023/09/22 14:18:03;;;;;;;11.55;3.28;;;;;;;;;;10464270;22;20015;-93
2023/09/22 14:22:10;;;;;;;7.55;3.30;;;;;;;;;;10464201;22;20038;-92
2023/09/22 14:26:16;;;;;;;6.80;3.10;;;;;;;;;;10464211;22;20056;-93
2023/09/22 14:30:24;;;;;;;6.97;3.17;;;;;;;;;;10410760;22;20073;-93
2023/09/22 14:34:36;;;;;;;8.73;3.35;;;;;;;;;;10441678;22;20035;-94
2023/09/22 14:38:44;;;;;;;8.25;3.33;;;;;;;;;;10416335;22;20015;-94
2023/09/22 14:42:53;;;;;;;68.45;5.80;;;;;;;;;;10412273;22;20037;-93
2023/09/22 14:51:50;;;;;;;6.18;3.00;;;;;;;;;;10190122;23;20024;-91
2023/09/22 14:56:07;;;;;;;7.95;3.08;;;;;;;;;;10189619;23;20037;-91
2023/09/22 15:00:14;;;;;;;6.07;3.10;;;;;;;;;;10194754;23;20061;-92
2023/09/22 15:04:20;;;;;;;8.00;3.03;;;;;;;;;;10199005;23;20033;-93
2023/09/22 15:08:29;;;;;;;9.38;3.30;;;;;;;;;;10188948;23;20028;-91
2023/09/22 15:12:35;;;;;;;6.50;3.80;;;;;;;;;;10204088;23;20021;-91
2023/09/22 15:16:40;;;;;;;5.32;3.22;;;;;;;;;;10193034;23;20088;-91
2023/09/22 15:20:45;;;;;;;6.05;2.95;;;;;;;;;;10293949;22;20056;-92
2023/09/22 15:24:51;;;;;;;11.00;3.55;;;;;;;;;;10415079;22;20049;-91
2023/09/22 15:28:57;;;;;;;6.75;3.28;;;;;;;;;;10416055;22;20069;-92
2023/09/22 15:33:03;;;;;;;8.50;3.47;;;;;;;;;;10415131;22;20015;-91
2023/09/22 15:37:07;;;;;;;6.72;3.17;;;;;;;;;;10458535;22;20054;-91
2023/09/22 15:41:12;;;;;;;7.32;3.00;;;;;;;;;;10460114;22;20011;-93
2023/09/22 15:45:21;;;;;;;6.28;2.95;;;;;;;;;;10415257;22;20015;-92
2023/09/22 15:49:25;;;;;;;7.50;2.78;;;;;;;;;;10416189;22;20027;-93
2023/09/22 15:53:32;;;;;;;7.10;3.17;;;;;;;;;;10415159;22;20022;-94
2023/09/22 15:57:38;;;;;;;7.22;3.30;;;;;;;;;;10414699;22;20031;-93
2023/09/22 16:01:46;;;;;;;8.65;3.10;;;;;;;;;;10417686;22;20141;-93
2023/09/22 16:05:55;;;;;;;6.25;3.00;;;;;;;;;;10414459;22;20015;-92
2023/09/22 16:09:58;;;;;;;6.90;2.75;;;;;;;;;;10414696;22;20015;-93
2023/09/22 16:14:03;;;;;;;5.18;2.65;;;;;;;;;;10286613;22;20025;-93
2023/09/22 16:27:00;;;;;;;7.25;2.90;;;;;;;;;;10192506;22;20030;-93
2023/09/22 16:31:15;;;;;;;6.80;2.75;;;;;;;;;;10209351;23;20018;-96
2023/09/22 16:35:31;;;;;;;6.18;2.83;;;;;;;;;;10294308;22;20018;-95
2023/09/22 16:39:46;;;;;;;5.38;2.72;;;;;;;;;;10293954;22;20014;-95
2023/09/22 16:44:15;;;;;;;5.47;2.70;;;;;;;;;;10450098;22;20350;-95
2023/09/22 16:53:58;;;;;;;5.25;2.97;;;;;;;;;;10448415;22;20064;-96
2023/09/22 17:03:21;;;;;;;13.45;3.60;;;;;;;;;;10453318;22;20084;-96
2023/09/22 17:07:57;;;;;;;;;;;;;;;;;;10467773;22;20377;-95
2023/09/22 17:12:05;;;;;;;7.45;2.92;;;;;;;;;;10408636;22;19911;-96
2023/09/22 17:16:17;;;;;;;8.63;3.30;;;;;;;;;;10397587;22;20016;-95
2023/09/22 17:20:27;;;;;;;9.73;3.33;;;;;;;;;;10395630;22;20016;-93
2023/09/22 17:24:31;;;;;;;10.27;3.33;;;;;;;;;;10399783;22;20095;-96
2023/09/22 17:28:37;;;;;;;6.32;3.05;;;;;;;;;;10393777;22;20023;-95
2023/09/22 17:32:46;;;;;;;5.85;3.47;;;;;;;;;;10396271;22;20046;-96
2023/09/22 17:36:52;;;;;;;5.90;3.33;;;;;;;;;;10400183;22;20016;-95
2023/09/22 17:41:00;;;;;;;8.05;3.90;;;;;;;;;;10397152;22;20023;-96
2023/09/22 17:45:15;;;;;;;10.43;3.90;;;;;;;;;;10397187;22;20016;-95
2023/09/22 17:49:34;;;;;;;11.20;4.35;;;;;;;;;;10393469;22;20110;-93
2023/09/22 17:59:16;;;;;;;15.48;4.65;;;;;;;;;;10381004;22;20016;-93
2023/09/22 18:13:30;;;;;;;13.75;6.47;;;;;;;;;;10316613;23;20027;-94
2023/09/22 18:18:48;;;;;;;10.73;6.38;;;;;;;;;;10402894;22;20015;-95
2023/09/22 18:37:48;;;;;;;15.73;7.47;;;;;;;;;;10440340;22;20015;-92
2023/09/22 18:41:54;;;;;;;10.45;5.80;;;;;;;;;;10460788;22;20094;-94
2023/09/22 18:46:01;;;;;;;18.13;8.43;;;;;;;;;;10418055;22;20015;-93
2023/09/22 18:50:14;;;;;;;12.77;5.03;;;;;;;;;;10416856;22;20026;-95
2023/09/22 18:54:38;;;;;;;10.07;5.50;;;;;;;;;;10439032;22;20065;-94
2023/09/22 18:59:40;;;;;;;14.30;6.63;;;;;;;;;;10416512;22;20030;-94
2023/09/22 19:03:58;;;;;;;10.23;5.68;;;;;;;;;;10444602;22;20077;-94
2023/09/22 19:08:10;;;;;;;13.90;5.93;;;;;;;;;;10418456;22;20022;-94
2023/09/22 19:17:33;;;;;;;11.93;5.93;;;;;;;;;;10444542;22;20143;-94
2023/09/22 19:27:26;;;;;;;10.32;5.55;;;;;;;;;;10443890;22;20053;-93
2023/09/22 19:31:38;;;;;;;10.93;5.85;;;;;;;;;;10372992;22;20092;-95
2023/09/22 19:35:46;;;;;;;10.15;5.90;;;;;;;;;;10416509;22;20015;-94
2023/09/22 19:39:54;;;;;;;8.65;5.38;;;;;;;;;;10417296;22;20015;-94
2023/09/22 19:44:03;;;;;;;10.10;6.28;;;;;;;;;;10416471;22;20019;-93
2023/09/22 19:48:21;;;;;;;14.57;6.88;;;;;;;;;;10460364;22;20015;-93
2023/09/22 19:52:31;;;;;;;11.82;7.47;;;;;;;;;;10414063;22;20019;-95
2023/09/22 19:56:41;;;;;;;12.48;6.93;;;;;;;;;;10414489;22;20016;-93
2023/09/22 20:00:49;;;;;;;13.48;6.50;;;;;;;;;;10414071;22;20046;-94
2023/09/22 20:05:05;;;;;;;10.35;7.00;;;;;;;;;;10415221;22;20015;-94
2023/09/22 20:09:10;;;;;;;12.85;7.57;;;;;;;;;;10460309;22;20015;-93
2023/09/22 20:13:16;;;;;;;14.40;6.97;;;;;;;;;;10414256;22;20019;-95
2023/09/22 20:17:24;;;;;;;14.65;7.47;;;;;;;;;;10414617;22;20015;-95
2023/09/22 20:21:30;;;;;;;12.07;7.10;;;;;;;;;;10412019;22;20022;-92
2023/09/22 20:25:36;;;;;;;14.73;7.97;;;;;;;;;;10425686;22;20020;-92
2023/09/22 20:29:49;;;;;;;13.95;7.63;;;;;;;;;;10425713;22;20028;-95
2023/09/22 20:34:07;;;;;;;14.63;7.65;;;;;;;;;;10460918;22;20015;-94
2023/09/22 20:38:28;;;;;;;11.48;7.40;;;;;;;;;;10415108;22;20016;-95
2023/09/22 20:42:37;;;;;;;16.00;7.38;;;;;;;;;;10459784;22;20018;-94
2023/09/22 20:46:50;;;;;;;11.40;7.60;;;;;;;;;;10415349;22;20019;-95
2023/09/22 20:55:47;;;;;;;12.75;7.70;;;;;;;;;;10443695;22;20077;-95
2023/09/22 20:59:57;;;;;;;15.63;8.10;;;;;;;;;;10414618;22;20023;-94
2023/09/22 21:04:12;;;;;;;12.02;7.95;;;;;;;;;;10417867;22;20022;-95
2023/09/22 21:08:20;;;;;;;13.88;7.65;;;;;;;;;;10421342;22;20103;-94
2023/09/22 21:12:26;;;;;;;15.88;9.40;;;;;;;;;;10419839;22;20015;-95
2023/09/22 21:16:40;;;;;;;18.58;8.65;;;;;;;;;;10418660;22;20022;-94
2023/09/22 21:20:49;;;;;;;15.60;8.05;;;;;;;;;;10418623;22;20021;-95
2023/09/22 21:24:55;;;;;;;16.98;8.63;;;;;;;;;;10445744;22;20090;-96
2023/09/22 21:29:05;;;;;;;14.18;8.73;;;;;;;;;;10418173;22;20015;-94
2023/09/22 21:33:10;;;;;;;16.45;8.98;;;;;;;;;;10417682;22;20019;-93
2023/09/22 21:37:14;;;;;;;16.30;9.68;;;;;;;;;;10417830;22;20015;-94
2023/09/22 21:41:20;;;;;;;15.05;9.10;;;;;;;;;;10445622;22;20018;-93
2023/09/22 21:45:25;;;;;;;15.77;9.75;;;;;;;;;;10416208;22;20015;-92
2023/09/22 21:49:35;;;;;;;15.32;9.43;;;;;;;;;;10443679;22;20048;-92
2023/09/22 21:53:40;;;;;;;16.77;9.40;;;;;;;;;;10415272;22;20015;-92
2023/09/22 21:57:46;;;;;;;14.68;9.98;;;;;;;;;;10442088;22;20015;-92
2023/09/22 22:01:50;;;;;;;18.20;10.68;;;;;;;;;;10416341;22;20022;-93
2023/09/22 22:05:55;;;;;;;13.57;9.68;;;;;;;;;;10416875;22;20015;-93
2023/09/22 22:10:02;;;;;;;18.48;11.00;;;;;;;;;;10444075;22;20012;-93
2023/09/22 22:14:13;;;;;;;21.98;11.82;;;;;;;;;;10416028;22;20045;-90
2023/09/22 22:18:16;;;;;;;14.15;10.57;;;;;;;;;;10416842;22;20011;-96
2023/09/22 22:22:24;;;;;;;17.73;11.48;;;;;;;;;;10416506;22;20026;-93
2023/09/22 22:26:29;;;;;;;19.02;11.52;;;;;;;;;;10415692;22;20080;-92
2023/09/22 22:30:36;;;;;;;20.77;11.55;;;;;;;;;;10416548;22;20027;-93
2023/09/22 22:34:54;;;;;;;19.35;11.63;;;;;;;;;;10460874;22;20015;-95
2023/09/22 22:39:02;;;;;;;19.42;12.00;;;;;;;;;;10461663;22;20022;-92
2023/09/22 22:43:08;;;;;;;16.40;11.57;;;;;;;;;;10415682;22;20015;-92
2023/09/22 22:53:04;;;;;;;16.65;10.73;;;;;;;;;;10084391;23;20026;-92
2023/09/22 22:57:09;;;;;;;17.83;12.10;;;;;;;;;;10101041;23;20072;-92
2023/09/22 23:17:45;;;;;;;21.38;13.57;;;;;;;;;;10444378;22;20376;-92
2023/09/22 23:22:13;;;;;;;21.65;13.82;;;;;;;;;;10417165;22;20038;-95
2023/09/22 23:26:19;;;;;;;22.75;14.60;;;;;;;;;;10444113;22;20042;-94
2023/09/22 23:30:24;;;;;;;28.25;14.60;;;;;;;;;;10416724;22;20019;-96
2023/09/22 23:34:31;;;;;;;26.50;15.32;;;;;;;;;;10416329;22;20019;-94
2023/09/22 23:38:35;;;;;;;28.08;15.95;;;;;;;;;;10416433;22;20041;-95
2023/09/22 23:42:39;;;;;;;28.05;14.18;;;;;;;;;;10417272;22;20015;-94
2023/09/22 23:46:44;;;;;;;24.60;14.70;;;;;;;;;;10419336;22;20053;-94
2023/09/22 23:50:56;;;;;;;22.02;13.55;;;;;;;;;;10443624;22;20016;-94
2023/09/22 23:55:00;;;;;;;22.33;14.70;;;;;;;;;;10416987;22;20097;-92
2023/09/22 23:59:09;;;;;;;22.02;14.80;;;;;;;;;;10443358;22;20065;-93
